Time;durP1;ratioP1;P1;durP2;ratioP2;P2;SDS_P1;SDS_P2;PMS_P1;PMS_P2;Temp;Humidity;BMP_temperature;BMP_pressure;BME280_temperature;BME280_humidity;BME280_pressure;Samples;Min_cycle;Max_cycle;Signal;HPM_P1;HPM_P2
2022/03/29 00:01:22;;;;;;;1.05;0.60;;;;;;;3.96;44.96;100055.72;5043130;28;20541;-75
2022/03/29 00:03:47;;;;;;;2.15;0.88;;;;;;;3.95;44.68;100061.72;5043077;28;20014;-75
2022/03/29 00:06:13;;;;;;;3.72;0.90;;;;;;;3.92;44.82;100060.78;5042982;28;20026;-76
2022/03/29 00:08:38;;;;;;;3.70;1.02;;;;;;;3.84;45.21;100056.44;5043175;28;20032;-76
2022/03/29 00:11:03;;;;;;;3.00;1.02;;;;;;;3.76;45.42;100050.31;5042973;28;20159;-76
2022/03/29 00:13:29;;;;;;;3.45;1.23;;;;;;;3.72;45.62;100049.41;5025295;28;20021;-76
2022/03/29 00:15:54;;;;;;;3.92;1.08;;;;;;;3.68;45.70;100065.63;5042905;28;20144;-75
2022/03/29 00:18:19;;;;;;;3.38;1.00;;;;;;;3.57;45.95;100047.50;5042751;28;20052;-75
2022/03/29 00:20:45;;;;;;;2.92;0.90;;;;;;;3.55;45.82;100046.59;5043153;28;20026;-75
2022/03/29 00:23:10;;;;;;;6.60;1.00;;;;;;;3.55;46.12;100050.88;5025207;28;20025;-75
2022/03/29 00:25:35;;;;;;;7.03;1.60;;;;;;;3.51;46.16;100051.66;5042795;28;20030;-74
2022/03/29 00:28:01;;;;;;;6.45;1.00;;;;;;;3.49;46.36;100054.22;5042975;28;20021;-75
2022/03/29 00:30:26;;;;;;;5.80;1.20;;;;;;;3.40;46.48;100047.25;5043098;28;20014;-75
2022/03/29 00:32:53;;;;;;;4.70;1.27;;;;;;;3.38;46.54;100043.78;5043063;28;20025;-75
2022/03/29 00:35:19;;;;;;;3.78;1.92;;;;;;;3.34;46.87;100042.88;5043162;28;20021;-75
2022/03/29 00:37:45;;;;;;;3.10;1.13;;;;;;;3.29;46.47;100041.94;5046782;28;20432;-75
2022/03/29 00:40:12;;;;;;;3.97;0.90;;;;;;;3.26;46.49;100049.59;5046859;28;20584;-75
2022/03/29 00:42:38;;;;;;;4.65;1.33;;;;;;;3.21;46.56;100039.25;5046436;28;20385;-75
2022/03/29 00:45:05;;;;;;;3.70;0.90;;;;;;;3.27;46.24;100046.19;5028813;28;20025;-75
2022/03/29 00:47:30;;;;;;;6.03;1.13;;;;;;;3.25;46.19;100041.88;5046703;28;20029;-75
2022/03/29 00:49:56;;;;;;;1.30;0.90;;;;;;;3.16;45.96;100032.34;5028932;28;20052;-75
2022/03/29 00:52:22;;;;;;;1.95;0.80;;;;;;;3.17;45.65;100042.63;5029512;28;20113;-75
2022/03/29 00:54:48;;;;;;;3.92;0.75;;;;;;;3.22;45.43;100046.13;5028813;28;20025;-75
2022/03/29 00:57:14;;;;;;;6.00;1.00;;;;;;;3.21;45.20;100046.94;5046533;28;20017;-75
2022/03/29 00:59:42;;;;;;;2.22;1.10;;;;;;;3.11;45.12;100037.38;5046451;28;20105;-75
2022/03/29 01:02:07;;;;;;;4.43;1.00;;;;;;;3.12;45.14;100036.53;5046468;28;20462;-75
2022/03/29 01:04:33;;;;;;;3.85;0.80;;;;;;;3.13;45.12;100040.81;5028533;28;20080;-75
2022/03/29 01:06:59;;;;;;;1.10;0.80;;;;;;;3.04;45.09;100035.53;5028331;28;20468;-75
2022/03/29 01:09:29;;;;;;;1.00;0.68;;;;;;;3.06;45.11;100033.88;5046310;28;20032;-74
2022/03/29 01:11:55;;;;;;;4.25;1.05;;;;;;;3.00;45.24;100031.22;5045796;28;20512;-74
2022/03/29 01:14:22;;;;;;;2.15;0.88;;;;;;;2.97;45.05;100032.88;5046243;28;20031;-74
2022/03/29 01:19:35;;;;;;;1.50;0.98;;;;;;;2.91;44.95;100035.34;5046320;28;20036;-76
2022/03/29 01:22:07;;;;;;;3.40;0.70;;;;;;;2.89;45.05;100028.47;5046226;28;20124;-74
2022/03/29 01:24:34;;;;;;;2.05;0.80;;;;;;;2.85;44.91;100032.69;5028046;28;20111;-75
2022/03/29 01:27:01;;;;;;;1.20;0.60;;;;;;;2.83;44.66;100034.34;5045822;28;20078;-75
2022/03/29 01:29:28;;;;;;;2.13;0.80;;;;;;;2.82;44.87;100035.19;5045943;28;20029;-74
2022/03/29 01:31:54;;;;;;;1.15;0.80;;;;;;;2.78;44.89;100035.97;5045670;28;20021;-76
2022/03/29 01:34:21;;;;;;;1.75;0.75;;;;;;;2.77;44.74;100034.25;5045911;28;20024;-75
2022/03/29 01:36:47;;;;;;;1.33;0.70;;;;;;;2.71;44.75;100027.31;5027708;28;20029;-74
2022/03/29 01:39:13;;;;;;;2.20;0.73;;;;;;;2.71;44.53;100030.75;5045884;28;20029;-75
2022/03/29 01:41:38;;;;;;;2.90;0.70;;;;;;;2.66;44.42;100024.66;5045188;28;20042;-75
2022/03/29 01:44:09;;;;;;;1.45;0.68;;;;;;;2.67;44.63;100026.38;5045478;28;20119;-75
2022/03/29 01:46:34;;;;;;;2.28;0.75;;;;;;;2.73;44.64;100025.66;5045431;28;20037;-75
2022/03/29 01:49:01;;;;;;;3.92;0.70;;;;;;;2.64;44.64;100015.22;5044584;28;20099;-75
2022/03/29 01:51:27;;;;;;;2.25;0.88;;;;;;;2.67;44.54;100026.38;5028004;28;20029;-75
2022/03/29 01:53:59;;;;;;;1.90;0.75;;;;;;;2.64;44.66;100025.47;5045464;28;20082;-75
2022/03/29 01:56:29;;;;;;;4.07;1.00;;;;;;;2.60;45.17;100035.66;5045287;28;20075;-75
2022/03/29 01:58:55;;;;;;;2.78;1.17;;;;;;;2.54;44.92;100037.28;5027485;28;20030;-76
2022/03/29 02:01:21;;;;;;;3.17;0.80;;;;;;;2.52;44.79;100019.31;5045634;28;20036;-75
2022/03/29 02:03:46;;;;;;;1.25;0.80;;;;;;;2.51;44.89;100024.41;5045283;28;20037;-75
2022/03/29 02:06:11;;;;;;;3.00;1.00;;;;;;;2.55;44.64;100029.59;5045011;28;20378;-74
2022/03/29 02:08:37;;;;;;;1.77;0.90;;;;;;;2.55;44.90;100031.28;5045204;28;20032;-74
2022/03/29 02:11:02;;;;;;;5.18;0.77;;;;;;;2.54;44.77;100037.28;5044940;28;20049;-74
2022/03/29 02:13:27;;;;;;;2.80;0.80;;;;;;;2.53;44.82;100027.84;5045312;28;20374;-74
2022/03/29 02:15:53;;;;;;;2.28;0.88;;;;;;;2.51;44.97;100042.34;5044895;28;20027;-74
2022/03/29 02:18:18;;;;;;;1.30;0.80;;;;;;;2.40;44.93;100027.59;5044963;28;20110;-74
2022/03/29 02:20:44;;;;;;;10.48;1.35;;;;;;;2.42;45.30;100038.75;5044963;28;20029;-75
2022/03/29 02:23:14;;;;;;;4.15;1.20;;;;;;;2.41;45.37;100047.25;5045044;28;20045;-75
2022/03/29 02:25:41;;;;;;;4.18;1.00;;;;;;;2.41;45.43;100049.81;5044918;28;20113;-74
2022/03/29 02:28:06;;;;;;;2.58;0.93;;;;;;;2.34;45.71;100042.88;5044988;28;20482;-75
2022/03/29 02:30:36;;;;;;;4.63;1.30;;;;;;;2.31;45.62;100037.69;5044825;28;20072;-75
2022/03/29 02:33:02;;;;;;;3.95;1.00;;;;;;;2.38;45.59;100049.75;5044547;28;20029;-75
2022/03/29 02:35:27;;;;;;;3.58;1.13;;;;;;;2.28;45.64;100029.94;5044459;28;20121;-74
2022/03/29 02:37:53;;;;;;;3.17;1.10;;;;;;;2.41;45.46;100049.81;5026599;28;20541;-75
2022/03/29 02:40:18;;;;;;;4.88;0.75;;;;;;;2.43;45.55;100048.16;5026852;28;20192;-75
2022/03/29 02:42:51;;;;;;;2.63;0.80;;;;;;;2.41;45.49;100039.56;5044231;28;20041;-75
2022/03/29 02:45:18;;;;;;;2.20;1.30;;;;;;;2.43;45.55;100037.91;5026533;28;20036;-75
2022/03/29 02:47:49;;;;;;;3.00;0.85;;;;;;;2.37;45.33;100021.56;5044450;28;20313;-74
2022/03/29 02:50:15;;;;;;;2.83;0.93;;;;;;;2.39;45.55;100023.34;5044517;28;20359;-74
2022/03/29 02:52:56;;;;;;;2.03;0.80;;;;;;;2.43;45.57;100032.78;5044545;28;20037;-75
2022/03/29 02:55:23;;;;;;;6.82;1.27;;;;;;;2.40;45.63;100037.84;5044482;28;20470;-75
2022/03/29 02:57:49;;;;;;;1.38;0.70;;;;;;;2.34;45.83;100023.25;5026334;28;20396;-74
2022/03/29 03:00:16;;;;;;;3.47;1.20;;;;;;;2.35;45.78;100027.53;5043880;28;20029;-75
2022/03/29 03:02:48;;;;;;;4.53;1.00;;;;;;;2.34;45.82;100027.50;5044505;28;20037;-74
2022/03/29 03:05:14;;;;;;;1.95;1.00;;;;;;;2.31;46.04;100030.88;5044139;28;20091;-74
2022/03/29 03:07:41;;;;;;;4.53;1.20;;;;;;;2.30;45.97;100029.13;5043949;28;20534;-75
2022/03/29 03:10:07;;;;;;;4.90;1.20;;;;;;;2.33;45.91;100034.31;5044167;28;20040;-75
2022/03/29 03:12:40;;;;;;;5.07;0.85;;;;;;;2.31;45.91;100030.88;5043775;28;20084;-74
2022/03/29 03:15:09;;;;;;;2.33;1.00;;;;;;;2.28;45.99;100022.25;5026071;28;20022;-75
2022/03/29 03:17:35;;;;;;;9.20;1.25;;;;;;;2.33;45.77;100030.91;5044009;28;20067;-74
2022/03/29 03:20:00;;;;;;;3.47;0.90;;;;;;;2.28;45.72;100018.00;5043996;28;20018;-72
2022/03/29 03:22:27;;;;;;;3.20;1.00;;;;;;;2.34;45.76;100028.38;5026187;28;20037;-75
2022/03/29 03:24:53;;;;;;;5.53;0.80;;;;;;;2.27;45.78;100017.97;5043981;28;20021;-74
2022/03/29 03:27:18;;;;;;;1.13;0.90;;;;;;;2.30;45.79;100029.13;5043363;28;20028;-75
2022/03/29 03:29:44;;;;;;;3.15;0.90;;;;;;;2.27;45.82;100026.50;5025865;28;20029;-74
2022/03/29 03:32:10;;;;;;;2.53;1.08;;;;;;;2.32;45.65;100026.59;5043724;28;20036;-74
2022/03/29 03:34:36;;;;;;;1.92;0.77;;;;;;;2.32;45.77;100024.03;5025803;28;20033;-74
2022/03/29 03:37:03;;;;;;;0.82;0.65;;;;;;;2.33;45.76;100021.50;5025799;28;20037;-74
2022/03/29 03:39:29;;;;;;;2.80;1.00;;;;;;;2.32;45.84;100009.53;5043504;28;20022;-75
2022/03/29 03:41:54;;;;;;;2.58;0.90;;;;;;;2.31;45.74;100009.50;5043396;28;20069;-76
2022/03/29 03:44:20;;;;;;;5.93;1.20;;;;;;;2.38;45.85;100020.75;5043420;28;20034;-76
2022/03/29 03:46:45;;;;;;;3.63;0.90;;;;;;;2.37;45.73;100019.88;5025657;28;20432;-75
2022/03/29 03:49:11;;;;;;;3.30;1.02;;;;;;;2.41;45.80;100023.34;5025660;28;20026;-76
2022/03/29 03:51:36;;;;;;;5.15;1.15;;;;;;;2.39;45.87;100018.22;5043356;28;20371;-74
2022/03/29 03:54:02;;;;;;;5.47;1.20;;;;;;;2.31;46.30;100004.38;5043313;28;20297;-75
2022/03/29 03:56:27;;;;;;;4.85;1.50;;;;;;;2.29;46.41;100014.59;5043086;28;20021;-75
2022/03/29 03:58:52;;;;;;;3.70;1.23;;;;;;;2.26;46.59;100014.53;5043260;28;20030;-75
2022/03/29 04:01:18;;;;;;;3.42;1.27;;;;;;;2.23;46.83;100006.81;5042920;28;20093;-75
2022/03/29 04:03:44;;;;;;;2.38;1.20;;;;;;;2.17;47.14;100002.41;5043086;28;20029;-69
2022/03/29 04:06:09;;;;;;;4.32;1.52;;;;;;;2.12;47.21;100003.16;5043176;28;20025;-74
2022/03/29 04:08:34;;;;;;;2.05;1.02;;;;;;;2.16;46.74;99995.56;5043173;28;20029;-73
2022/03/29 04:11:00;;;;;;;6.97;1.30;;;;;;;2.14;47.03;99997.22;5042147;28;20044;-73
2022/03/29 04:13:26;;;;;;;4.63;0.90;;;;;;;2.12;46.63;99987.78;5043063;28;20108;-75
2022/03/29 04:15:51;;;;;;;5.55;0.90;;;;;;;2.15;46.77;100003.22;5042861;28;20033;-75
2022/03/29 04:18:17;;;;;;;2.05;1.05;;;;;;;2.16;46.55;99995.56;5043270;28;20021;-75
2022/03/29 04:20:42;;;;;;;2.05;0.85;;;;;;;2.16;46.61;100002.38;5042955;28;20035;-74
2022/03/29 04:23:08;;;;;;;3.42;0.90;;;;;;;2.19;46.27;99999.91;5043315;28;20021;-75
2022/03/29 04:25:35;;;;;;;3.92;0.82;;;;;;;2.25;46.23;99997.47;5042991;28;20076;-75
2022/03/29 04:28:00;;;;;;;5.00;1.27;;;;;;;2.26;46.29;99996.63;5043968;28;20044;-76
2022/03/29 04:30:26;;;;;;;2.08;0.90;;;;;;;2.29;46.05;100003.47;5043047;28;20493;-73
2022/03/29 04:32:53;;;;;;;3.78;0.88;;;;;;;2.32;46.21;100003.53;5042694;28;20029;-75
2022/03/29 04:35:18;;;;;;;1.98;0.70;;;;;;;2.32;46.10;99994.16;5042821;28;20028;-75
2022/03/29 04:37:43;;;;;;;3.72;0.80;;;;;;;2.36;45.93;99987.41;5042555;28;20029;-72
2022/03/29 04:40:10;;;;;;;5.50;0.82;;;;;;;2.41;45.77;99984.94;5025172;28;20024;-72
2022/03/29 04:42:47;;;;;;;3.83;1.20;;;;;;;2.38;45.97;99972.91;5042619;28;20536;-72
2022/03/29 04:45:13;;;;;;;3.47;0.77;;;;;;;2.42;45.75;99982.38;5042938;28;20123;-73
2022/03/29 04:47:42;;;;;;;2.45;0.85;;;;;;;2.47;45.81;99979.91;5043048;28;20025;-73
2022/03/29 04:50:09;;;;;;;2.47;0.75;;;;;;;2.46;45.75;99973.91;5025244;28;20018;-72
2022/03/29 04:52:35;;;;;;;2.22;0.68;;;;;;;2.50;45.46;99989.34;5025043;28;20040;-73
2022/03/29 04:55:00;;;;;;;3.78;1.13;;;;;;;2.48;45.61;99972.25;5042953;28;20017;-73
2022/03/29 04:57:26;;;;;;;6.60;1.25;;;;;;;2.52;45.69;99980.88;5042587;28;20029;-73
2022/03/29 04:59:51;;;;;;;4.97;1.58;;;;;;;2.53;45.87;99979.16;5042794;28;20056;-73
2022/03/29 05:02:16;;;;;;;6.75;1.20;;;;;;;2.52;46.48;99980.00;5042755;28;20022;-74
2022/03/29 05:04:42;;;;;;;15.15;2.03;;;;;;;2.47;46.16;99978.22;5042867;28;20045;-74
2022/03/29 05:07:07;;;;;;;9.68;2.40;;;;;;;2.44;47.20;99973.03;5042736;28;20105;-74
2022/03/29 05:09:33;;;;;;;16.70;2.20;;;;;;;2.40;47.43;99981.50;5024821;28;20029;-73
2022/03/29 05:11:59;;;;;;;16.75;2.35;;;;;;;2.33;47.76;99971.97;5042261;28;20021;-73
2022/03/29 05:14:25;;;;;;;19.98;3.33;;;;;;;2.33;48.05;99977.09;5025276;28;20099;-72
2022/03/29 05:16:50;;;;;;;13.23;1.85;;;;;;;2.21;48.55;99964.91;5042403;28;20106;-74
2022/03/29 05:19:16;;;;;;;15.75;2.60;;;;;;;2.15;48.92;99991.28;5024822;28;20021;-74
2022/03/29 05:21:42;;;;;;;15.93;2.83;;;;;;;1.96;49.41;99980.69;5042928;28;20543;-74
2022/03/29 05:24:07;;;;;;;25.35;4.93;;;;;;;1.94;49.29;99981.47;5046295;28;20025;-73
2022/03/29 05:26:33;;;;;;;26.05;6.15;;;;;;;1.92;49.33;99998.50;5045891;28;20013;-74
2022/03/29 05:28:58;;;;;;;20.95;5.03;;;;;;;1.85;49.44;99987.28;5028164;28;20028;-74
2022/03/29 05:31:23;;;;;;;16.80;4.25;;;;;;;1.85;49.47;99988.13;5027786;28;20467;-73
2022/03/29 05:33:49;;;;;;;18.98;4.88;;;;;;;1.89;49.25;99994.19;5046013;28;20021;-73
2022/03/29 05:36:15;;;;;;;19.00;4.68;;;;;;;1.94;49.14;99991.72;5045718;28;20085;-72
2022/03/29 05:38:41;;;;;;;25.05;5.32;;;;;;;2.00;49.26;99996.97;5028213;28;20346;-74
2022/03/29 05:41:06;;;;;;;25.70;5.05;;;;;;;2.01;49.24;99988.47;5045579;28;20049;-73
2022/03/29 05:43:32;;;;;;;19.48;4.45;;;;;;;2.12;49.18;99985.22;5028224;28;20036;-74
2022/03/29 05:48:55;;;;;;;11.70;2.85;;;;;;;2.09;48.40;99980.94;5046191;28;20049;-74
2022/03/29 05:51:24;;;;;;;16.90;2.72;;;;;;;2.18;48.43;99986.22;5027825;28;20052;-74
2022/03/29 05:53:50;;;;;;;8.25;2.42;;;;;;;2.30;48.38;99989.84;5045668;28;20021;-74
2022/03/29 05:56:15;;;;;;;20.98;3.00;;;;;;;2.37;48.31;99994.25;5027571;28;20123;-73
2022/03/29 05:58:41;;;;;;;20.55;2.63;;;;;;;2.42;48.02;99990.06;5045797;28;20462;-74
2022/03/29 06:01:06;;;;;;;12.32;2.45;;;;;;;2.48;48.02;99990.19;5045568;28;20379;-74
2022/03/29 06:03:32;;;;;;;8.23;2.90;;;;;;;2.54;48.13;99984.28;5027714;28;20045;-74
2022/03/29 06:05:57;;;;;;;10.43;1.73;;;;;;;2.70;48.10;99993.13;5045436;28;20028;-73
2022/03/29 06:08:23;;;;;;;13.45;2.20;;;;;;;2.78;47.93;99985.56;5045072;28;20021;-74
2022/03/29 06:10:48;;;;;;;15.77;2.67;;;;;;;2.99;47.71;99993.59;5045387;28;20017;-75
2022/03/29 06:13:14;;;;;;;28.15;3.92;;;;;;;3.08;47.64;99986.03;5044955;28;20052;-73
2022/03/29 06:15:39;;;;;;;9.45;2.45;;;;;;;3.15;47.41;99997.25;5027494;28;20068;-74
2022/03/29 06:18:05;;;;;;;12.73;2.05;;;;;;;3.19;47.52;99994.78;5045291;28;20030;-74
2022/03/29 06:20:31;;;;;;;19.15;2.28;;;;;;;3.29;47.45;99993.19;5045288;28;20021;-74
2022/03/29 06:22:56;;;;;;;12.27;2.63;;;;;;;3.37;47.42;99988.16;5045161;28;20017;-73
2022/03/29 06:25:21;;;;;;;11.00;2.00;;;;;;;3.54;47.28;99993.56;5027293;28;20014;-73
2022/03/29 06:27:49;;;;;;;5.93;1.70;;;;;;;3.69;47.04;99992.88;5027471;28;20018;-74
2022/03/29 06:30:14;;;;;;;8.18;1.75;;;;;;;3.71;46.55;99980.06;5045310;28;20025;-75
2022/03/29 06:32:53;;;;;;;17.00;3.67;;;;;;;3.94;46.67;99995.78;5045316;28;20080;-76
2022/03/29 06:35:21;;;;;;;21.55;2.28;;;;;;;4.09;46.33;99994.22;5044493;28;20085;-75
2022/03/29 06:37:48;;;;;;;12.50;2.33;;;;;;;4.18;46.36;99988.31;5044960;28;20601;-75
2022/03/29 06:40:14;;;;;;;15.30;2.05;;;;;;;4.34;46.31;99986.78;5045094;28;20029;-76
2022/03/29 06:42:39;;;;;;;13.23;2.13;;;;;;;4.50;45.85;99979.22;5044651;28;20058;-74
2022/03/29 06:45:05;;;;;;;5.10;1.52;;;;;;;4.58;45.20;99962.16;5044892;28;20025;-75
2022/03/29 06:47:32;;;;;;;11.23;1.83;;;;;;;4.71;45.28;99963.97;5044718;28;20116;-76
2022/03/29 06:49:57;;;;;;;9.63;1.60;;;;;;;4.90;44.31;99974.44;5027115;28;20442;-75
2022/03/29 06:52:26;;;;;;;4.30;1.00;;;;;;;4.96;44.29;99964.19;5044845;28;20029;-76
2022/03/29 06:54:52;;;;;;;8.43;1.35;;;;;;;5.19;44.08;99972.94;5044833;28;20076;-76
2022/03/29 06:57:17;;;;;;;5.70;1.23;;;;;;;5.35;43.81;99971.31;5026658;28;20026;-76
2022/03/29 06:59:43;;;;;;;4.53;1.45;;;;;;;5.42;43.13;99967.91;5044660;28;20032;-76
2022/03/29 07:02:08;;;;;;;4.53;1.08;;;;;;;5.46;43.02;99982.53;5044606;28;20382;-75
2022/03/29 07:04:34;;;;;;;9.48;1.10;;;;;;;5.46;42.97;99979.94;5044498;28;20052;-75
2022/03/29 07:07:00;;;;;;;5.07;1.30;;;;;;;5.45;43.05;99970.50;5026525;28;20036;-75
2022/03/29 07:12:09;;;;;;;2.17;0.80;;;;;;;5.61;41.74;99973.16;5044355;28;20112;-76
2022/03/29 07:14:34;;;;;;;5.63;1.25;;;;;;;5.52;41.33;99970.53;5044315;28;20172;-75
2022/03/29 07:17:00;;;;;;;2.63;1.00;;;;;;;5.45;41.26;99973.09;5044155;28;20030;-75
2022/03/29 07:19:27;;;;;;;5.45;1.02;;;;;;;5.37;40.63;99963.59;5044452;28;20045;-75
2022/03/29 07:21:53;;;;;;;4.85;1.23;;;;;;;5.21;40.93;99968.63;5026369;28;20079;-75
2022/03/29 07:24:18;;;;;;;3.10;0.80;;;;;;;5.14;40.99;99966.88;5044126;28;20018;-75
2022/03/29 07:26:44;;;;;;;2.17;0.93;;;;;;;5.07;40.56;99964.28;5044016;28;20026;-75
2022/03/29 07:29:09;;;;;;;3.13;0.90;;;;;;;5.04;40.41;99971.97;5044195;28;20034;-75
2022/03/29 07:31:35;;;;;;;2.38;1.00;;;;;;;5.00;40.67;99972.78;5044231;28;20025;-76
2022/03/29 07:34:00;;;;;;;4.80;1.00;;;;;;;4.95;40.62;99969.34;5044119;28;20068;-75
2022/03/29 07:36:26;;;;;;;5.60;1.10;;;;;;;4.91;40.89;99960.72;5043892;28;20033;-74
2022/03/29 07:38:51;;;;;;;2.80;0.80;;;;;;;5.00;40.79;99951.34;5043970;28;20072;-76
2022/03/29 07:41:17;;;;;;;1.70;1.00;;;;;;;5.25;41.14;99957.53;5043617;28;20717;-76
2022/03/29 07:43:42;;;;;;;2.83;0.80;;;;;;;5.75;41.08;99959.50;5043749;28;20027;-75
2022/03/29 07:46:08;;;;;;;2.53;0.85;;;;;;;6.27;40.58;99964.00;5043789;28;20032;-75
2022/03/29 07:48:33;;;;;;;6.93;0.82;;;;;;;6.48;40.16;99962.31;5043624;28;20026;-76
2022/03/29 07:50:58;;;;;;;3.42;1.20;;;;;;;6.50;39.58;99963.16;5043711;28;20084;-75
2022/03/29 07:53:25;;;;;;;3.78;0.90;;;;;;;6.42;38.87;99965.72;5025699;28;20056;-75
2022/03/29 07:55:52;;;;;;;3.55;1.20;;;;;;;6.47;39.03;99959.72;5025632;28;20056;-76
2022/03/29 07:58:19;;;;;;;7.38;1.25;;;;;;;6.42;38.55;99950.25;5043071;28;20089;-74
2022/03/29 08:00:46;;;;;;;9.02;1.65;;;;;;;6.38;38.96;99958.84;5043365;28;20100;-76
2022/03/29 08:03:14;;;;;;;4.85;1.38;;;;;;;6.48;38.79;99961.44;5043102;28;20021;-76
2022/03/29 08:05:41;;;;;;;10.60;1.77;;;;;;;6.48;38.57;99961.44;5043321;28;20025;-74
2022/03/29 08:08:09;;;;;;;6.47;1.35;;;;;;;6.51;38.67;99962.31;5025221;28;20476;-75
2022/03/29 08:10:35;;;;;;;11.13;1.95;;;;;;;6.82;38.99;99958.91;5025230;28;20025;-76
2022/03/29 08:13:07;;;;;;;8.82;0.90;;;;;;;7.17;38.23;99957.97;5025058;28;20115;-76
2022/03/29 08:15:32;;;;;;;4.13;1.30;;;;;;;7.34;37.54;99964.84;5043383;28;20028;-75
2022/03/29 08:17:58;;;;;;;3.55;1.80;;;;;;;7.56;38.04;99955.31;5042836;28;20029;-76
2022/03/29 08:20:25;;;;;;;5.43;1.10;;;;;;;7.85;36.92;99955.19;5042855;28;20025;-76
2022/03/29 08:22:52;;;;;;;6.82;1.48;;;;;;;7.80;37.36;99942.28;5025121;28;20025;-76
2022/03/29 08:25:18;;;;;;;4.63;1.17;;;;;;;8.03;36.55;99955.13;5043029;28;20029;-75
2022/03/29 08:27:45;;;;;;;3.33;0.90;;;;;;;7.96;36.80;99937.91;5024923;28;20047;-76
2022/03/29 08:30:12;;;;;;;4.65;1.10;;;;;;;8.37;36.55;99943.69;5043005;28;20021;-75
2022/03/29 08:32:39;;;;;;;1.85;0.80;;;;;;;8.77;35.34;99939.16;5024949;28;20018;-75
2022/03/29 08:35:06;;;;;;;4.10;1.20;;;;;;;8.88;34.89;99945.06;5043028;28;20034;-76
2022/03/29 08:37:35;;;;;;;5.03;1.10;;;;;;;8.99;34.38;99926.88;5042873;28;20030;-76
2022/03/29 08:40:01;;;;;;;3.22;0.90;;;;;;;9.48;34.02;99939.28;5042950;28;20093;-75
2022/03/29 08:42:26;;;;;;;2.72;0.95;;;;;;;9.98;33.39;99934.38;5024686;28;20395;-76
2022/03/29 08:44:52;;;;;;;5.55;0.70;;;;;;;9.99;32.28;99948.19;5043330;28;20031;-76
2022/03/29 08:47:17;;;;;;;3.00;0.63;;;;;;;10.06;32.66;99941.19;5025399;28;20018;-75
2022/03/29 08:49:48;;;;;;;2.25;0.70;;;;;;;10.37;31.99;99944.19;5043160;28;20053;-76
2022/03/29 08:52:14;;;;;;;3.80;0.90;;;;;;;10.60;31.81;99931.75;5043358;28;20033;-75
2022/03/29 08:54:39;;;;;;;3.83;1.02;;;;;;;10.78;31.56;99935.81;5043505;28;20067;-75
2022/03/29 08:57:05;;;;;;;5.07;0.85;;;;;;;11.61;31.00;99932.53;5044581;28;20030;-76
2022/03/29 08:59:30;;;;;;;2.30;0.90;;;;;;;11.37;29.67;99928.69;5047225;28;20288;-76
2022/03/29 09:01:57;;;;;;;2.38;0.80;;;;;;;11.35;29.19;99935.66;5029264;28;20032;-77
2022/03/29 09:04:24;;;;;;;2.45;0.70;;;;;;;11.57;28.66;99919.63;5047033;28;20096;-76
2022/03/29 09:06:49;;;;;;;1.63;0.80;;;;;;;12.08;27.39;99920.31;5046863;28;20093;-76
2022/03/29 09:09:30;;;;;;;2.13;0.70;;;;;;;11.55;27.26;99932.66;5046839;28;20029;-76
2022/03/29 09:11:57;;;;;;;1.13;0.73;;;;;;;11.50;26.91;99913.72;5046590;28;20036;-77
2022/03/29 09:14:26;;;;;;;2.53;0.60;;;;;;;12.00;26.70;99923.06;5046783;28;20097;-76
2022/03/29 09:16:52;;;;;;;2.53;0.70;;;;;;;12.52;26.07;99921.00;5028625;28;20022;-77
2022/03/29 09:19:23;;;;;;;2.50;0.70;;;;;;;12.63;25.42;99906.88;5046571;28;20041;-77
2022/03/29 09:21:49;;;;;;;2.90;0.60;;;;;;;12.30;25.32;99919.84;5046585;28;20048;-77
2022/03/29 09:24:18;;;;;;;1.52;0.50;;;;;;;12.75;25.43;99911.78;5046566;28;20053;-77
2022/03/29 09:26:46;;;;;;;2.47;0.70;;;;;;;12.61;25.35;99903.47;5028401;28;20033;-77
2022/03/29 09:29:17;;;;;;;0.75;0.60;;;;;;;12.44;25.71;99898.69;5046611;28;20223;-75
2022/03/29 09:31:44;;;;;;;1.58;0.52;;;;;;;12.75;25.90;99905.72;5046534;28;20096;-76
2022/03/29 09:34:14;;;;;;;1.58;0.57;;;;;;;13.04;23.92;99892.81;5028503;28;20411;-76
2022/03/29 09:36:49;;;;;;;0.43;0.40;;;;;;;12.73;23.93;99891.91;5046528;28;20119;-75
2022/03/29 09:39:41;;;;;;;0.88;0.50;;;;;;;13.16;23.90;99904.66;5046408;28;20031;-76
2022/03/29 09:42:11;;;;;;;0.63;0.40;;;;;;;13.83;23.56;99889.75;5045931;28;20046;-76
2022/03/29 09:44:43;;;;;;;0.98;0.57;;;;;;;13.92;22.72;99886.88;5046093;28;20025;-76
2022/03/29 09:47:12;;;;;;;2.55;0.65;;;;;;;13.51;23.17;99897.66;5028289;28;20064;-76
2022/03/29 09:50:08;;;;;;;2.35;0.70;;;;;;;14.54;22.89;99891.88;5046418;28;20040;-76
2022/03/29 09:52:41;;;;;;;1.42;0.60;;;;;;;14.89;22.95;99890.78;5028047;28;20022;-76
2022/03/29 09:55:16;;;;;;;0.80;0.50;;;;;;;14.53;22.28;99897.16;5045979;28;20037;-77
2022/03/29 09:57:47;;;;;;;2.08;0.60;;;;;;;13.65;22.27;99880.72;5045903;28;20037;-77
2022/03/29 10:00:29;;;;;;;1.15;0.65;;;;;;;12.95;23.14;99904.34;5028258;28;20029;-76
2022/03/29 10:02:55;;;;;;;4.25;0.77;;;;;;;12.23;23.36;99893.97;5028029;28;20322;-76
2022/03/29 10:05:23;;;;;;;3.58;0.70;;;;;;;11.71;24.37;99888.16;5045743;28;20075;-76
2022/03/29 10:10:52;;;;;;;3.00;0.60;;;;;;;10.88;25.46;99875.03;5045783;28;20401;-77
2022/03/29 10:13:23;;;;;;;1.40;0.60;;;;;;;11.20;25.82;99874.47;5045829;28;20025;-76
2022/03/29 10:15:53;;;;;;;1.20;0.57;;;;;;;11.93;24.97;99878.13;5045779;28;20018;-78
2022/03/29 10:18:21;;;;;;;0.95;0.60;;;;;;;11.98;24.55;99878.88;5027656;28;20424;-76
2022/03/29 10:20:47;;;;;;;1.27;0.68;;;;;;;11.55;23.79;99877.22;5027673;28;20017;-77
2022/03/29 10:23:22;;;;;;;1.65;0.65;;;;;;;11.03;24.55;99866.09;5045863;28;20085;-74
2022/03/29 10:25:48;;;;;;;1.27;0.70;;;;;;;11.84;24.48;99867.91;5027350;28;20480;-77
2022/03/29 10:28:14;;;;;;;1.45;0.63;;;;;;;12.07;23.99;99867.41;5045183;28;20034;-76
2022/03/29 10:30:42;;;;;;;1.95;1.05;;;;;;;12.13;23.71;99867.28;5045343;28;20048;-76
2022/03/29 10:33:27;;;;;;;1.52;0.60;;;;;;;11.89;24.13;99868.66;5045411;28;20089;-75
2022/03/29 10:36:09;;;;;;;2.25;0.60;;;;;;;11.59;24.26;99861.53;5045395;28;20029;-76
2022/03/29 10:41:31;;;;;;;1.02;0.50;;;;;;;10.31;24.02;99862.97;5044930;28;20060;-77
2022/03/29 10:44:04;;;;;;;1.05;0.60;;;;;;;9.54;24.83;99864.06;5027271;28;20032;-78
2022/03/29 10:46:43;;;;;;;0.95;0.60;;;;;;;8.96;25.48;99864.72;5044961;28;20381;-77
2022/03/29 10:49:15;;;;;;;1.08;0.70;;;;;;;8.58;26.12;99874.59;5027222;28;20481;-77
2022/03/29 10:51:41;;;;;;;3.50;0.70;;;;;;;8.51;26.83;99867.72;5045289;28;20025;-75
2022/03/29 10:54:42;;;;;;;3.90;1.25;;;;;;;8.82;26.88;99866.63;5044935;28;20025;-78
2022/03/29 10:57:24;;;;;;;2.63;1.00;;;;;;;9.12;26.87;99867.19;5002483;28;20113;-80
2022/03/29 11:00:17;;;;;;;6.00;0.80;;;;;;;9.03;26.50;99857.75;5045050;28;20042;-76
2022/03/29 11:03:15;;;;;;;1.83;0.68;;;;;;;8.89;26.76;99869.13;5044712;28;20043;-76
2022/03/29 11:06:03;;;;;;;2.42;0.70;;;;;;;8.72;26.74;99863.25;5037932;28;20053;-76
2022/03/29 11:08:29;;;;;;;1.67;0.80;;;;;;;8.70;27.18;99865.00;5026835;28;20037;-76
2022/03/29 11:10:55;;;;;;;4.07;1.05;;;;;;;8.83;27.40;99861.44;5044499;28;20045;-75
2022/03/29 11:13:26;;;;;;;2.70;1.02;;;;;;;8.80;26.73;99851.13;5044388;28;20022;-75
2022/03/29 11:15:51;;;;;;;1.80;0.70;;;;;;;8.58;26.63;99847.88;5044555;28;20036;-75
2022/03/29 11:18:38;;;;;;;4.35;1.08;;;;;;;8.33;26.85;99850.63;5026644;28;20051;-76
2022/03/29 11:21:05;;;;;;;1.73;1.00;;;;;;;8.26;27.26;99842.91;5044161;28;20021;-75
2022/03/29 11:23:33;;;;;;;7.80;1.20;;;;;;;8.27;27.67;99846.38;5044279;28;20462;-75
2022/03/29 11:26:10;;;;;;;9.02;1.02;;;;;;;8.41;27.62;99849.72;5026227;28;20025;-76
2022/03/29 11:28:37;;;;;;;4.93;1.00;;;;;;;8.58;27.84;99843.53;5044015;28;20018;-76
2022/03/29 11:31:03;;;;;;;6.45;1.13;;;;;;;8.74;27.31;99848.59;5026449;28;20021;-77
2022/03/29 11:33:34;;;;;;;4.00;1.00;;;;;;;8.81;27.37;99855.41;5026358;28;20022;-78
2022/03/29 11:36:00;;;;;;;5.38;1.27;;;;;;;8.88;27.43;99848.44;5044066;28;20048;-78
2022/03/29 11:38:26;;;;;;;2.70;0.82;;;;;;;9.00;27.58;99844.84;5043982;28;20017;-76
2022/03/29 11:40:51;;;;;;;6.05;0.80;;;;;;;9.05;27.56;99840.50;5025913;28;20024;-76
2022/03/29 11:43:22;;;;;;;2.47;0.68;;;;;;;8.98;27.53;99836.25;5025876;28;20029;-76
2022/03/29 11:45:48;;;;;;;2.72;0.90;;;;;;;8.85;27.57;99836.38;5043799;28;20027;-76
2022/03/29 11:48:17;;;;;;;20.25;2.80;;;;;;;8.65;28.21;99829.69;5043610;28;20074;-77
2022/03/29 11:50:45;;;;;;;1.85;0.70;;;;;;;8.63;28.21;99828.84;5025805;28;20035;-78
2022/03/29 11:53:22;;;;;;;2.85;0.60;;;;;;;8.67;28.51;99820.16;5043582;28;20465;-76